Bruno, Nebraska
Current Conditions -  °F | °C
As of 8:55 AM on Tuesday 21 Oct 2014 (Local Time) from KAHQ Reporting Station
Clear Clear  
Wind Chill: 44°   Ceiling: Unl
Heat Index: 44°   Visibility: 10mi
Dew Point: 39°   Wind: 3mph
Humidity: 84%   Direction: 130°SE
Pressure: 30.11"   Gusts: NA
Location:  41.28°N, 96.96°W
Report Text: KAHQ 211355Z AUTO 13003KT 10SM CLR 07/04 A3011 RMK AO2 T00650040
Loading
Personal Weather Stations






























Interactive Weather Map
Tropical Storm Tracking
New forecast layout! Learn more

10-Day Weather Forecast

Advertisements
Track Severe Weather on mobile